Time;durP1;ratioP1;P1;durP2;ratioP2;P2;SDS_P1;SDS_P2;PMS_P1;PMS_P2;Temp;Humidity;BMP_temperature;BMP_pressure;BME280_temperature;BME280_humidity;BME280_pressure;Samples;Min_cycle;Max_cycle;Signal;HPM_P1;HPM_P2
2023/05/31 00:00:05;;;;;;;2.00;0.68;;;;;;;;;;1021904;29;20109;-74
2023/05/31 00:00:35;;;;;;;5.22;2.63;;;;;;;;;;1021709;29;20034;-74
2023/05/31 00:01:06;;;;;;;1.98;1.33;;;;;;;;;;1021157;29;20019;-74
2023/05/31 00:01:36;;;;;;;2.10;1.90;;;;;;;;;;1023080;29;20471;-74
2023/05/31 00:02:07;;;;;;;0.52;0.52;;;;;;;;;;1023472;29;20019;-74
2023/05/31 00:02:37;;;;;;;1.52;1.42;;;;;;;;;;1021095;29;20459;-74
2023/05/31 00:03:08;;;;;;;1.33;1.20;;;;;;;;;;1021927;29;20058;-74
2023/05/31 00:03:43;;;;;;;1.90;1.63;;;;;;;;;;1021691;29;20118;-74
2023/05/31 00:04:13;;;;;;;2.85;1.48;;;;;;;;;;1021632;29;20030;-74
2023/05/31 00:04:44;;;;;;;9.07;1.33;;;;;;;;;;1021045;29;20027;-74
2023/05/31 00:05:14;;;;;;;2.05;1.15;;;;;;;;;;1020817;29;20030;-74
2023/05/31 00:05:45;;;;;;;2.10;0.77;;;;;;;;;;1017428;29;20024;-74
2023/05/31 00:06:15;;;;;;;2.80;1.25;;;;;;;;;;1017405;29;20107;-74
2023/05/31 00:06:45;;;;;;;5.05;1.67;;;;;;;;;;1016871;29;20122;-74
2023/05/31 00:07:16;;;;;;;2.13;2.03;;;;;;;;;;1017413;29;20071;-74
2023/05/31 00:07:46;;;;;;;1.05;0.98;;;;;;;;;;1021435;29;20058;-74
2023/05/31 00:08:17;;;;;;;2.05;0.70;;;;;;;;;;1022044;29;20364;-74
2023/05/31 00:08:47;;;;;;;4.38;1.55;;;;;;;;;;1021756;29;20033;-74
2023/05/31 00:09:18;;;;;;;3.53;2.28;;;;;;;;;;1020125;29;20051;-74
2023/05/31 00:09:48;;;;;;;4.38;1.60;;;;;;;;;;1019084;29;20559;-74
2023/05/31 00:10:19;;;;;;;4.75;2.85;;;;;;;;;;1019563;29;20459;-74
2023/05/31 00:10:49;;;;;;;2.92;0.88;;;;;;;;;;1017374;29;20058;-74
2023/05/31 00:11:20;;;;;;;0.68;0.68;;;;;;;;;;1019478;29;20392;-74
2023/05/31 00:11:50;;;;;;;3.00;2.35;;;;;;;;;;1018994;29;20059;-74
2023/05/31 00:12:21;;;;;;;1.25;0.95;;;;;;;;;;1019504;29;20020;-74
2023/05/31 00:12:51;;;;;;;2.05;1.92;;;;;;;;;;1019159;29;20087;-74
2023/05/31 00:13:22;;;;;;;0.70;0.68;;;;;;;;;;1019498;29;20110;-74
2023/05/31 00:13:53;;;;;;;1.20;0.90;;;;;;;;;;1021155;29;20027;-74
2023/05/31 00:14:23;;;;;;;2.03;1.88;;;;;;;;;;1021234;29;20388;-74
2023/05/31 00:14:54;;;;;;;4.82;1.98;;;;;;;;;;1021318;28;20035;-74
2023/05/31 00:15:24;;;;;;;16.65;3.30;;;;;;;;;;1021858;29;20106;-74
2023/05/31 00:15:55;;;;;;;2.75;0.85;;;;;;;;;;1021729;29;20106;-74
2023/05/31 00:16:25;;;;;;;1.02;0.85;;;;;;;;;;1021855;29;20027;-74
2023/05/31 00:16:56;;;;;;;0.20;0.20;;;;;;;;;;1021545;29;20031;-74
2023/05/31 00:17:26;;;;;;;1.75;1.65;;;;;;;;;;1021373;29;21097;-74
2023/05/31 00:17:57;;;;;;;0.52;0.50;;;;;;;;;;1021993;29;20082;-74
2023/05/31 00:18:27;;;;;;;2.75;2.10;;;;;;;;;;1020043;29;20083;-74
2023/05/31 00:18:58;;;;;;;2.53;1.98;;;;;;;;;;1021032;29;20024;-74
2023/05/31 00:19:28;;;;;;;5.65;3.17;;;;;;;;;;1021096;29;20543;-74
2023/05/31 00:19:59;;;;;;;1.50;1.40;;;;;;;;;;1021612;29;20063;-74
2023/05/31 00:20:29;;;;;;;2.70;1.85;;;;;;;;;;1021591;29;20023;-74
2023/05/31 00:21:00;;;;;;;0.80;0.80;;;;;;;;;;1021804;29;20392;-74
2023/05/31 00:21:30;;;;;;;2.65;2.42;;;;;;;;;;1020855;28;20019;-74
2023/05/31 00:22:00;;;;;;;1.13;1.08;;;;;;;;;;1021312;29;20114;-74
2023/05/31 00:22:31;;;;;;;1.42;0.70;;;;;;;;;;1021538;28;20027;-74
2023/05/31 00:23:01;;;;;;;1.75;1.52;;;;;;;;;;1021806;29;20039;-74
2023/05/31 00:23:32;;;;;;;0.05;0.05;;;;;;;;;;1021617;29;20027;-74
2023/05/31 00:24:02;;;;;;;6.03;3.85;;;;;;;;;;1021691;29;20078;-74
2023/05/31 00:24:33;;;;;;;0.40;0.40;;;;;;;;;;1020890;29;20035;-74
2023/05/31 00:25:04;;;;;;;0.80;0.80;;;;;;;;;;1021088;29;20504;-74
2023/05/31 00:25:34;;;;;;;6.22;2.47;;;;;;;;;;1020050;29;20480;-74
2023/05/31 00:26:04;;;;;;;1.70;1.13;;;;;;;;;;1021652;29;20115;-74
2023/05/31 00:26:35;;;;;;;1.38;1.27;;;;;;;;;;1021225;28;20027;-74
2023/05/31 00:27:06;;;;;;;2.33;1.73;;;;;;;;;;1016441;29;20035;-74
2023/05/31 00:27:36;;;;;;;2.63;1.98;;;;;;;;;;1017306;29;20020;-74
2023/05/31 00:28:06;;;;;;;1.42;1.33;;;;;;;;;;1016995;29;20416;-74
2023/05/31 00:28:37;;;;;;;2.33;1.20;;;;;;;;;;1021207;29;20032;-74
2023/05/31 00:29:07;;;;;;;3.15;1.52;;;;;;;;;;1021696;29;20110;-74
2023/05/31 00:29:38;;;;;;;0.55;0.55;;;;;;;;;;1021162;29;20106;-74
2023/05/31 00:30:09;;;;;;;3.35;2.28;;;;;;;;;;1021391;29;20607;-74
2023/05/31 00:30:39;;;;;;;1.08;0.63;;;;;;;;;;1021248;29;20032;-74
2023/05/31 00:31:09;;;;;;;1.90;1.25;;;;;;;;;;1021483;29;20078;-74
2023/05/31 00:31:42;;;;;;;0.75;0.75;;;;;;;;;;1021178;28;20505;-74
2023/05/31 00:32:13;;;;;;;0.85;0.63;;;;;;;;;;1024444;28;20033;-74
2023/05/31 00:32:43;;;;;;;3.53;2.58;;;;;;;;;;1024423;28;20026;-74
2023/05/31 00:33:14;;;;;;;1.63;1.52;;;;;;;;;;1021525;28;20034;-74
2023/05/31 00:33:44;;;;;;;2.45;1.08;;;;;;;;;;1021534;29;20555;-74
2023/05/31 00:34:15;;;;;;;0.32;0.32;;;;;;;;;;1021890;29;20035;-74
2023/05/31 00:34:45;;;;;;;1.70;1.60;;;;;;;;;;1021734;29;20515;-74
2023/05/31 00:35:16;;;;;;;21.02;2.38;;;;;;;;;;1020521;29;20081;-74
2023/05/31 00:35:46;;;;;;;0.65;0.65;;;;;;;;;;1021100;29;20485;-74
2023/05/31 00:36:17;;;;;;;5.15;1.90;;;;;;;;;;1021677;29;20473;-74
2023/05/31 00:36:48;;;;;;;0.77;0.77;;;;;;;;;;1020090;28;20023;-74
2023/05/31 00:37:18;;;;;;;1.60;1.25;;;;;;;;;;1022191;28;20118;-74
2023/05/31 00:37:49;;;;;;;1.00;1.00;;;;;;;;;;1021515;29;20074;-74
2023/05/31 00:38:19;;;;;;;6.72;1.63;;;;;;;;;;1021241;29;20373;-74
2023/05/31 00:38:50;;;;;;;11.05;1.95;;;;;;;;;;1022968;29;20113;-74
2023/05/31 00:39:20;;;;;;;0.88;0.65;;;;;;;;;;1023477;29;20411;-74
2023/05/31 00:39:51;;;;;;;2.40;1.75;;;;;;;;;;1022979;29;20031;-74
2023/05/31 00:40:21;;;;;;;1.08;0.98;;;;;;;;;;1021947;29;20027;-74
2023/05/31 00:40:52;;;;;;;7.60;3.30;;;;;;;;;;1020916;29;20036;-74
2023/05/31 00:41:23;;;;;;;1.58;1.02;;;;;;;;;;1021814;29;20449;-74
2023/05/31 00:41:53;;;;;;;2.75;2.13;;;;;;;;;;1021524;28;20032;-74
2023/05/31 00:42:25;;;;;;;0.50;0.47;;;;;;;;;;1021938;29;20027;-74
2023/05/31 00:42:56;;;;;;;0.98;0.93;;;;;;;;;;1021756;29;20098;-74
2023/05/31 00:43:26;;;;;;;0.63;0.63;;;;;;;;;;1021195;28;20515;-74
2023/05/31 00:43:57;;;;;;;4.25;2.17;;;;;;;;;;1021345;29;20031;-74
2023/05/31 00:44:27;;;;;;;8.20;3.45;;;;;;;;;;1021531;29;20031;-74
2023/05/31 00:44:58;;;;;;;7.07;2.15;;;;;;;;;;1021797;29;20030;-74
2023/05/31 00:45:28;;;;;;;2.80;1.70;;;;;;;;;;1021578;29;20031;-74
2023/05/31 00:45:59;;;;;;;7.90;2.30;;;;;;;;;;1021785;29;20034;-74
2023/05/31 00:46:33;;;;;;;2.80;1.88;;;;;;;;;;1021242;28;20019;-74
2023/05/31 00:47:04;;;;;;;8.65;4.75;;;;;;;;;;1021404;29;20031;-74
2023/05/31 00:47:35;;;;;;;4.22;1.92;;;;;;;;;;1021071;28;20043;-74
2023/05/31 00:48:06;;;;;;;14.32;4.30;;;;;;;;;;1021532;28;20118;-74
2023/05/31 00:48:38;;;;;;;7.63;4.75;;;;;;;;;;1020616;28;20027;-74
2023/05/31 00:49:09;;;;;;;5.28;3.42;;;;;;;;;;1023107;28;20566;-74
2023/05/31 00:49:39;;;;;;;3.90;2.25;;;;;;;;;;1018462;29;20028;-74
2023/05/31 00:50:10;;;;;;;7.57;3.22;;;;;;;;;;1018227;29;20079;-74
2023/05/31 00:50:40;;;;;;;5.53;4.57;;;;;;;;;;1018810;29;20030;-74
2023/05/31 00:51:12;;;;;;;15.30;3.33;;;;;;;;;;1020931;29;20542;-74
2023/05/31 00:51:42;;;;;;;1.67;1.58;;;;;;;;;;1022306;29;20057;-74
2023/05/31 00:52:13;;;;;;;3.47;1.90;;;;;;;;;;1020884;29;20035;-74
2023/05/31 00:52:45;;;;;;;1.60;1.48;;;;;;;;;;1020123;29;20023;-74
2023/05/31 00:53:15;;;;;;;7.15;3.10;;;;;;;;;;1019521;29;20504;-74
2023/05/31 00:53:47;;;;;;;8.45;3.97;;;;;;;;;;1020781;29;20027;-74
2023/05/31 00:54:18;;;;;;;12.57;3.67;;;;;;;;;;1020270;29;20027;-74
2023/05/31 00:54:49;;;;;;;8.57;5.85;;;;;;;;;;1020210;29;20484;-74
2023/05/31 00:55:20;;;;;;;24.65;7.43;;;;;;;;;;1016916;29;20028;-74
2023/05/31 00:55:51;;;;;;;16.95;6.30;;;;;;;;;;1016491;29;20416;-74
2023/05/31 00:56:21;;;;;;;15.40;6.30;;;;;;;;;;1016222;29;20114;-74
2023/05/31 00:56:52;;;;;;;15.93;8.75;;;;;;;;;;1019581;28;20062;-74
2023/05/31 00:57:23;;;;;;;17.52;6.97;;;;;;;;;;1019756;29;20106;-74
2023/05/31 00:57:53;;;;;;;11.60;5.82;;;;;;;;;;1019903;29;20027;-74
2023/05/31 00:58:24;;;;;;;13.32;4.78;;;;;;;;;;1021072;29;20030;-74
2023/05/31 00:58:56;;;;;;;14.05;7.55;;;;;;;;;;1022091;29;20079;-74
2023/05/31 00:59:26;;;;;;;13.07;7.00;;;;;;;;;;1015723;29;20051;-74
2023/05/31 00:59:57;;;;;;;14.98;7.18;;;;;;;;;;1018356;29;20562;-74
2023/05/31 01:00:28;;;;;;;18.20;6.50;;;;;;;;;;1020622;29;20029;-74
2023/05/31 01:00:58;;;;;;;26.05;10.32;;;;;;;;;;1019747;29;20027;-75
2023/05/31 01:01:32;;;;;;;15.93;6.28;;;;;;;;;;1020540;28;20579;-74
2023/05/31 01:02:03;;;;;;;9.95;4.22;;;;;;;;;;1021009;28;20050;-74
2023/05/31 01:02:38;;;;;;;11.50;4.50;;;;;;;;;;1020473;29;20079;-74
2023/05/31 01:03:08;;;;;;;11.55;5.93;;;;;;;;;;1021482;29;20026;-74
2023/05/31 01:03:40;;;;;;;11.55;7.00;;;;;;;;;;1016005;29;20442;-74
2023/05/31 01:04:10;;;;;;;18.92;8.02;;;;;;;;;;1017610;29;20114;-74
2023/05/31 01:04:41;;;;;;;13.82;6.05;;;;;;;;;;1020314;29;20062;-74
2023/05/31 01:05:11;;;;;;;11.38;5.03;;;;;;;;;;1020293;29;20027;-74
2023/05/31 01:05:44;;;;;;;20.70;8.13;;;;;;;;;;1021254;28;20442;-74
2023/05/31 01:06:14;;;;;;;13.15;6.07;;;;;;;;;;1024958;28;20019;-74
2023/05/31 01:06:46;;;;;;;24.30;6.35;;;;;;;;;;1024857;28;20034;-74
2023/05/31 01:07:16;;;;;;;11.57;5.95;;;;;;;;;;1025138;28;20034;-74
2023/05/31 01:07:47;;;;;;;15.43;6.93;;;;;;;;;;1024931;28;20019;-74
2023/05/31 01:08:18;;;;;;;10.95;5.88;;;;;;;;;;1020545;29;20038;-74
2023/05/31 01:08:49;;;;;;;14.05;7.00;;;;;;;;;;1021333;29;20023;-74
2023/05/31 01:09:20;;;;;;;16.60;6.35;;;;;;;;;;1021206;29;20787;-74
2023/05/31 01:09:51;;;;;;;12.43;5.00;;;;;;;;;;1020711;29;20031;-74
2023/05/31 01:10:21;;;;;;;5.20;4.30;;;;;;;;;;1020959;28;20023;-75
2023/05/31 01:10:54;;;;;;;10.30;3.83;;;;;;;;;;1021615;29;20473;-74
2023/05/31 01:12:02;;;;;;;13.50;3.92;;;;;;;;;;1022054;28;20393;-74
2023/05/31 01:12:48;;;;;;;3.00;2.75;;;;;;;;;;1014850;29;20057;-74
2023/05/31 01:13:23;;;;;;;7.95;3.20;;;;;;;;;;1015657;29;20047;-74
2023/05/31 01:14:04;;;;;;;7.35;4.95;;;;;;;;;;1014507;29;20020;-74
2023/05/31 01:14:35;;;;;;;3.15;2.83;;;;;;;;;;1015501;29;20123;-74
2023/05/31 01:15:12;;;;;;;24.55;5.32;;;;;;;;;;1015657;29;20032;-74
2023/05/31 01:16:06;;;;;;;13.55;6.28;;;;;;;;;;1014282;29;20024;-74
2023/05/31 01:16:46;;;;;;;12.65;4.28;;;;;;;;;;1008221;29;20033;-74
2023/05/31 01:17:22;;;;;;;6.78;3.85;;;;;;;;;;1015577;29;20039;-74
2023/05/31 01:18:02;;;;;;;6.72;6.10;;;;;;;;;;1015045;29;20042;-74
2023/05/31 01:18:32;;;;;;;;;;;;;;;;;;1019860;29;20389;-74
2023/05/31 01:19:06;;;;;;;10.95;5.82;;;;;;;;;;1021943;29;19917;-74
2023/05/31 01:19:47;;;;;;;12.48;5.15;;;;;;;;;;1021337;28;20015;-74
2023/05/31 01:20:21;;;;;;;3.60;3.30;;;;;;;;;;1018220;29;20049;-74
2023/05/31 01:20:54;;;;;;;13.30;7.10;;;;;;;;;;1019815;29;20090;-74
2023/05/31 01:21:28;;;;;;;11.82;6.72;;;;;;;;;;1021710;29;20114;-74
2023/05/31 01:22:14;;;;;;;6.13;3.78;;;;;;;;;;1021551;29;20476;-74
2023/05/31 01:22:50;;;;;;;2.28;2.08;;;;;;;;;;1019981;29;20024;-74
2023/05/31 01:23:33;;;;;;;17.02;6.68;;;;;;;;;;1019512;29;20501;-74
2023/05/31 01:24:03;;;;;;;7.15;4.28;;;;;;;;;;1019895;29;20111;-74
2023/05/31 01:24:43;;;;;;;1.73;1.63;;;;;;;;;;1020372;29;20384;-74
2023/05/31 01:25:19;;;;;;;4.05;3.65;;;;;;;;;;1020391;29;20046;-74
2023/05/31 01:26:05;;;;;;;6.70;3.67;;;;;;;;;;1019371;29;20039;-75
2023/05/31 01:26:46;;;;;;;2.80;2.08;;;;;;;;;;1018477;29;20546;-74
2023/05/31 01:27:17;;;;;;;2.72;2.53;;;;;;;;;;994814;28;20505;-75
2023/05/31 01:27:49;;;;;;;4.53;4.10;;;;;;;;;;1025069;28;20015;-75
2023/05/31 01:28:21;;;;;;;23.67;8.93;;;;;;;;;;1021006;28;20168;-75
2023/05/31 01:28:53;;;;;;;5.38;4.88;;;;;;;;;;1023210;28;20019;-75
2023/05/31 01:29:26;;;;;;;5.63;4.35;;;;;;;;;;1022372;28;20110;-75
2023/05/31 01:29:58;;;;;;;5.57;3.90;;;;;;;;;;1022130;29;20027;-75
2023/05/31 01:30:29;;;;;;;10.38;4.90;;;;;;;;;;1019572;29;20478;-75
2023/05/31 01:31:02;;;;;;;6.57;5.07;;;;;;;;;;1019433;29;20036;-75
2023/05/31 01:31:34;;;;;;;4.78;3.72;;;;;;;;;;1020887;28;20023;-75
2023/05/31 01:32:05;;;;;;;7.13;3.55;;;;;;;;;;1020559;29;20036;-75
2023/05/31 01:32:36;;;;;;;7.13;4.32;;;;;;;;;;1020552;29;20039;-75
2023/05/31 01:33:08;;;;;;;6.00;3.78;;;;;;;;;;1020862;29;20027;-75
2023/05/31 01:33:39;;;;;;;10.40;4.03;;;;;;;;;;1020880;29;20108;-75
2023/05/31 01:34:10;;;;;;;10.18;3.63;;;;;;;;;;1018019;29;20661;-75
2023/05/31 01:34:44;;;;;;;10.00;4.82;;;;;;;;;;1016974;29;20023;-74
2023/05/31 01:35:14;;;;;;;14.40;6.47;;;;;;;;;;1017786;29;20730;-75
2023/05/31 01:35:45;;;;;;;4.90;3.38;;;;;;;;;;1019513;28;20030;-74
2023/05/31 01:36:15;;;;;;;6.20;3.95;;;;;;;;;;1021712;28;20035;-74
2023/05/31 01:36:46;;;;;;;4.95;4.20;;;;;;;;;;1020288;28;20042;-74
2023/05/31 01:37:16;;;;;;;10.52;5.40;;;;;;;;;;1021462;28;20374;-74
2023/05/31 01:37:47;;;;;;;9.52;5.18;;;;;;;;;;1019458;29;20061;-75
2023/05/31 01:38:18;;;;;;;7.43;5.97;;;;;;;;;;1019045;29;20027;-74
2023/05/31 01:38:51;;;;;;;6.20;4.18;;;;;;;;;;1018336;29;20071;-75
2023/05/31 01:39:22;;;;;;;4.75;4.35;;;;;;;;;;1019249;29;20038;-74
2023/05/31 01:39:53;;;;;;;10.45;5.25;;;;;;;;;;1019805;29;20090;-74
2023/05/31 01:40:23;;;;;;;6.85;5.85;;;;;;;;;;1017445;29;20035;-74
2023/05/31 01:40:55;;;;;;;21.30;5.93;;;;;;;;;;1020340;29;20031;-74
2023/05/31 01:41:27;;;;;;;8.88;6.10;;;;;;;;;;1021629;29;20554;-75
2023/05/31 01:41:57;;;;;;;28.27;8.10;;;;;;;;;;1021852;29;20031;-75
2023/05/31 01:42:28;;;;;;;4.50;4.07;;;;;;;;;;1020563;29;20031;-74
2023/05/31 01:42:59;;;;;;;16.23;4.03;;;;;;;;;;1020038;29;20121;-76
2023/05/31 01:43:30;;;;;;;3.08;2.20;;;;;;;;;;1018169;29;20028;-75
2023/05/31 01:44:01;;;;;;;7.18;5.82;;;;;;;;;;1019491;29;20023;-76
2023/05/31 01:44:32;;;;;;;9.40;5.50;;;;;;;;;;1016425;29;20583;-73
2023/05/31 01:45:04;;;;;;;7.78;6.05;;;;;;;;;;1016005;29;20041;-75
2023/05/31 01:45:35;;;;;;;6.43;4.38;;;;;;;;;;1016637;29;20027;-74
2023/05/31 01:46:06;;;;;;;8.90;4.78;;;;;;;;;;1019977;29;20451;-74
2023/05/31 01:46:37;;;;;;;6.20;4.55;;;;;;;;;;1020054;28;20083;-74
2023/05/31 01:47:08;;;;;;;5.82;4.93;;;;;;;;;;1021755;28;20034;-74
2023/05/31 01:47:43;;;;;;;8.00;2.70;;;;;;;;;;1021548;28;20030;-74
2023/05/31 01:48:13;;;;;;;5.50;3.50;;;;;;;;;;1017455;29;20039;-74
2023/05/31 01:48:45;;;;;;;10.50;4.70;;;;;;;;;;1021145;29;20043;-74
2023/05/31 01:49:15;;;;;;;13.27;2.72;;;;;;;;;;1019691;29;20020;-74
2023/05/31 01:49:46;;;;;;;17.48;3.67;;;;;;;;;;1018921;29;20023;-75
2023/05/31 01:50:18;;;;;;;12.40;4.45;;;;;;;;;;1019240;28;20571;-75
2023/05/31 01:50:52;;;;;;;2.55;2.35;;;;;;;;;;1019819;29;20063;-74
2023/05/31 01:51:23;;;;;;;14.50;6.60;;;;;;;;;;1017736;29;20087;-74
2023/05/31 01:51:54;;;;;;;4.03;3.53;;;;;;;;;;1019096;29;20031;-74
2023/05/31 01:52:26;;;;;;;5.47;4.38;;;;;;;;;;1018991;29;20087;-74
2023/05/31 01:52:56;;;;;;;6.88;4.53;;;;;;;;;;1020558;28;20028;-74
2023/05/31 01:53:27;;;;;;;5.10;4.55;;;;;;;;;;1021240;29;20395;-74
2023/05/31 01:53:57;;;;;;;8.90;5.75;;;;;;;;;;1024821;28;20019;-73
2023/05/31 01:54:28;;;;;;;5.93;4.38;;;;;;;;;;1019648;29;20519;-74
2023/05/31 01:54:59;;;;;;;5.25;3.22;;;;;;;;;;1018559;29;20137;-74
2023/05/31 01:55:29;;;;;;;14.95;5.93;;;;;;;;;;1019785;29;20625;-74
2023/05/31 01:56:01;;;;;;;2.83;1.98;;;;;;;;;;1019597;29;20020;-74
2023/05/31 01:56:32;;;;;;;6.25;4.13;;;;;;;;;;1019832;28;20447;-75
2023/05/31 01:57:04;;;;;;;5.97;2.60;;;;;;;;;;1019706;29;20023;-75
2023/05/31 01:57:37;;;;;;;7.25;5.38;;;;;;;;;;1018388;29;20027;-74
2023/05/31 01:58:08;;;;;;;5.20;4.22;;;;;;;;;;1020077;29;20136;-74
2023/05/31 01:58:48;;;;;;;4.28;3.80;;;;;;;;;;1019825;29;20539;-75
2023/05/31 01:59:19;;;;;;;3.42;3.13;;;;;;;;;;1020353;29;20082;-75
2023/05/31 01:59:50;;;;;;;15.43;3.83;;;;;;;;;;1020723;28;20044;-74
2023/05/31 02:00:22;;;;;;;6.38;4.35;;;;;;;;;;1020907;29;20134;-75
2023/05/31 02:00:52;;;;;;;7.80;4.38;;;;;;;;;;1021612;29;20034;-74
2023/05/31 02:01:23;;;;;;;5.05;3.28;;;;;;;;;;1019328;29;20028;-75
2023/05/31 02:01:53;;;;;;;4.07;3.20;;;;;;;;;;1020279;29;20472;-75
2023/05/31 02:02:24;;;;;;;3.53;2.60;;;;;;;;;;1021314;29;20546;-74
2023/05/31 02:02:55;;;;;;;5.78;2.70;;;;;;;;;;1019876;29;20035;-74
2023/05/31 02:03:25;;;;;;;10.43;5.55;;;;;;;;;;1018967;29;21160;-75
2023/05/31 02:03:56;;;;;;;8.68;3.53;;;;;;;;;;1021049;29;20034;-75
2023/05/31 02:04:26;;;;;;;4.57;3.67;;;;;;;;;;1020390;29;20511;-75
2023/05/31 02:05:04;;;;;;;4.68;3.95;;;;;;;;;;1017743;29;20468;-75
2023/05/31 02:05:36;;;;;;;1.52;1.45;;;;;;;;;;1015370;29;20032;-74
2023/05/31 02:06:07;;;;;;;10.75;5.45;;;;;;;;;;1013759;29;20054;-74
2023/05/31 02:06:37;;;;;;;5.55;3.22;;;;;;;;;;1018123;29;20504;-74
2023/05/31 02:07:09;;;;;;;10.27;3.78;;;;;;;;;;1020625;28;20062;-74
2023/05/31 02:07:47;;;;;;;2.22;1.85;;;;;;;;;;1018263;29;20054;-74
2023/05/31 02:08:17;;;;;;;7.68;3.25;;;;;;;;;;1018874;29;20054;-74
2023/05/31 02:08:48;;;;;;;3.00;2.10;;;;;;;;;;1018680;29;20640;-74
2023/05/31 02:09:20;;;;;;;8.20;2.92;;;;;;;;;;1018224;29;20031;-75
2023/05/31 02:09:51;;;;;;;5.90;1.75;;;;;;;;;;1020095;29;20035;-74
2023/05/31 02:10:21;;;;;;;7.93;4.28;;;;;;;;;;1019028;29;20082;-75
2023/05/31 02:10:53;;;;;;;5.38;3.00;;;;;;;;;;1020025;29;20119;-74
2023/05/31 02:11:23;;;;;;;6.43;3.08;;;;;;;;;;1020773;29;20030;-74
2023/05/31 02:11:54;;;;;;;5.80;4.22;;;;;;;;;;1019561;28;20034;-74
2023/05/31 02:12:24;;;;;;;3.70;2.53;;;;;;;;;;1020321;28;20530;-74
2023/05/31 02:12:55;;;;;;;5.40;2.63;;;;;;;;;;1023794;28;20081;-75
2023/05/31 02:13:27;;;;;;;7.65;4.65;;;;;;;;;;1023404;28;20054;-76
2023/05/31 02:13:57;;;;;;;9.70;4.18;;;;;;;;;;1023917;28;20384;-76
2023/05/31 02:14:28;;;;;;;2.30;2.03;;;;;;;;;;1020337;29;20117;-76
2023/05/31 02:14:58;;;;;;;4.15;1.95;;;;;;;;;;1020339;29;20046;-76
2023/05/31 02:15:29;;;;;;;8.32;2.90;;;;;;;;;;1015514;29;20028;-76
2023/05/31 02:15:59;;;;;;;5.68;2.53;;;;;;;;;;1019605;29;20031;-74
2023/05/31 02:16:30;;;;;;;7.50;3.70;;;;;;;;;;1017423;29;20126;-75
2023/05/31 02:17:00;;;;;;;11.25;3.13;;;;;;;;;;1016668;29;20035;-75
2023/05/31 02:17:32;;;;;;;7.22;3.42;;;;;;;;;;1018242;29;20539;-75
2023/05/31 02:18:03;;;;;;;8.23;3.03;;;;;;;;;;1021539;29;20058;-74
2023/05/31 02:18:35;;;;;;;5.38;3.08;;;;;;;;;;1022087;28;20027;-74
2023/05/31 02:19:05;;;;;;;5.03;3.58;;;;;;;;;;1022323;28;20028;-74
2023/05/31 02:19:37;;;;;;;7.30;1.75;;;;;;;;;;1021137;29;20027;-74
2023/05/31 02:20:09;;;;;;;4.68;2.88;;;;;;;;;;1019128;29;20452;-74
2023/05/31 02:20:39;;;;;;;1.55;1.45;;;;;;;;;;1018113;29;20390;-75
2023/05/31 02:21:10;;;;;;;9.68;2.65;;;;;;;;;;1020222;29;20030;-75
2023/05/31 02:21:40;;;;;;;5.40;3.15;;;;;;;;;;1019820;29;20023;-76
2023/05/31 02:22:11;;;;;;;8.10;3.10;;;;;;;;;;1019198;29;20428;-75
2023/05/31 02:22:42;;;;;;;4.10;2.55;;;;;;;;;;1019906;29;20520;-74
2023/05/31 02:23:12;;;;;;;2.83;2.63;;;;;;;;;;1018735;29;20023;-74
2023/05/31 02:23:43;;;;;;;2.00;1.85;;;;;;;;;;1019383;29;20598;-74
2023/05/31 02:24:13;;;;;;;3.03;2.83;;;;;;;;;;1019189;29;20047;-74
2023/05/31 02:24:44;;;;;;;2.83;2.63;;;;;;;;;;1022148;29;20394;-75
2023/05/31 02:25:15;;;;;;;1.90;1.58;;;;;;;;;;1019821;29;20085;-74
2023/05/31 02:25:46;;;;;;;4.38;3.65;;;;;;;;;;1018756;29;20098;-74
2023/05/31 02:26:17;;;;;;;1.23;1.13;;;;;;;;;;1018233;28;20030;-74
2023/05/31 02:26:47;;;;;;;1.17;1.08;;;;;;;;;;1025085;28;20030;-74
2023/05/31 02:27:18;;;;;;;1.25;1.15;;;;;;;;;;1022716;28;20015;-74
2023/05/31 02:27:48;;;;;;;4.93;2.70;;;;;;;;;;1020597;29;20142;-74
2023/05/31 02:28:19;;;;;;;0.98;0.98;;;;;;;;;;1017495;28;20027;-74
2023/05/31 02:28:49;;;;;;;1.83;1.17;;;;;;;;;;1019957;29;20062;-75
2023/05/31 02:29:20;;;;;;;2.22;2.00;;;;;;;;;;1019482;29;20032;-74
2023/05/31 02:29:50;;;;;;;1.77;1.67;;;;;;;;;;1018442;29;20158;-74
2023/05/31 02:30:21;;;;;;;3.55;2.80;;;;;;;;;;1018445;28;21786;-74
2023/05/31 02:30:58;;;;;;;2.72;2.53;;;;;;;;;;1020673;29;20035;-74
2023/05/31 02:31:28;;;;;;;1.02;0.98;;;;;;;;;;1019315;29;20063;-75
2023/05/31 02:31:59;;;;;;;2.00;1.48;;;;;;;;;;1019302;29;20028;-74
2023/05/31 02:32:29;;;;;;;2.95;2.70;;;;;;;;;;1019006;29;20385;-74
2023/05/31 02:33:00;;;;;;;3.75;2.65;;;;;;;;;;1016712;29;20150;-74
2023/05/31 02:33:30;;;;;;;1.30;1.15;;;;;;;;;;1018387;29;20627;-74
2023/05/31 02:34:01;;;;;;;4.55;4.15;;;;;;;;;;1017724;29;20480;-74
2023/05/31 02:34:33;;;;;;;4.65;2.13;;;;;;;;;;1017643;29;20547;-74
2023/05/31 02:35:04;;;;;;;3.15;2.88;;;;;;;;;;1018557;29;20087;-74
2023/05/31 02:35:35;;;;;;;2.90;2.63;;;;;;;;;;1015234;29;20064;-74
2023/05/31 02:36:05;;;;;;;1.60;1.50;;;;;;;;;;1019611;29;20038;-74
2023/05/31 02:36:36;;;;;;;1.92;1.27;;;;;;;;;;1019398;29;20277;-73
2023/05/31 02:37:06;;;;;;;2.60;2.30;;;;;;;;;;1019135;28;20039;-73
2023/05/31 02:37:38;;;;;;;2.20;2.03;;;;;;;;;;1021523;28;20046;-76
2023/05/31 02:38:08;;;;;;;3.47;2.95;;;;;;;;;;1022256;28;20479;-75
2023/05/31 02:38:39;;;;;;;8.35;3.13;;;;;;;;;;1018508;29;20031;-74
2023/05/31 02:39:09;;;;;;;1.15;1.15;;;;;;;;;;1016168;29;20070;-74
2023/05/31 02:39:40;;;;;;;2.25;2.08;;;;;;;;;;1017138;29;20035;-75
2023/05/31 02:40:11;;;;;;;0.95;0.95;;;;;;;;;;1018182;29;20103;-74
2023/05/31 02:40:42;;;;;;;2.55;2.35;;;;;;;;;;1017272;29;20032;-74
2023/05/31 02:41:12;;;;;;;2.30;1.27;;;;;;;;;;1018160;28;20029;-74
2023/05/31 02:41:43;;;;;;;4.20;2.88;;;;;;;;;;1018201;29;20125;-75
2023/05/31 02:42:13;;;;;;;1.30;1.10;;;;;;;;;;1018081;29;20067;-76
2023/05/31 02:42:43;;;;;;;3.10;2.15;;;;;;;;;;1017265;29;20027;-74
2023/05/31 02:43:14;;;;;;;0.52;0.52;;;;;;;;;;1016342;29;20581;-76
2023/05/31 02:43:45;;;;;;;2.55;2.25;;;;;;;;;;1018237;29;20482;-76
2023/05/31 02:44:15;;;;;;;2.40;2.20;;;;;;;;;;1015323;28;20307;-76
2023/05/31 02:44:49;;;;;;;1.40;1.30;;;;;;;;;;1011228;29;20254;-76
2023/05/31 02:45:20;;;;;;;1.75;1.40;;;;;;;;;;1009359;29;20036;-76
2023/05/31 02:45:51;;;;;;;7.97;3.70;;;;;;;;;;1012479;29;20498;-76
2023/05/31 02:46:21;;;;;;;4.38;3.38;;;;;;;;;;1014458;29;20094;-76
2023/05/31 02:46:52;;;;;;;1.75;1.33;;;;;;;;;;1020400;28;20058;-76
2023/05/31 02:47:22;;;;;;;2.33;2.15;;;;;;;;;;1020595;28;20326;-76
2023/05/31 02:47:53;;;;;;;2.55;2.35;;;;;;;;;;1018518;29;20031;-76
2023/05/31 02:48:23;;;;;;;0.32;0.32;;;;;;;;;;1016979;29;20608;-75
2023/05/31 02:48:54;;;;;;;2.20;1.52;;;;;;;;;;1018614;29;20612;-76
2023/05/31 02:49:24;;;;;;;2.00;1.52;;;;;;;;;;1017784;29;20055;-76
2023/05/31 02:49:55;;;;;;;1.05;1.05;;;;;;;;;;1018880;29;20419;-73
2023/05/31 02:50:25;;;;;;;1.77;1.67;;;;;;;;;;1017143;28;20122;-76
2023/05/31 02:50:56;;;;;;;1.35;1.25;;;;;;;;;;1015892;29;20035;-75
2023/05/31 02:51:29;;;;;;;0.95;0.80;;;;;;;;;;1015294;29;21010;-74
2023/05/31 02:51:59;;;;;;;11.93;4.80;;;;;;;;;;1013444;29;20594;-74
2023/05/31 02:52:32;;;;;;;2.13;1.95;;;;;;;;;;1017927;29;20030;-75
2023/05/31 02:53:05;;;;;;;3.83;3.47;;;;;;;;;;1013224;29;20051;-75
2023/05/31 02:53:36;;;;;;;0.98;0.98;;;;;;;;;;1011069;29;20030;-74
2023/05/31 02:54:06;;;;;;;2.30;2.20;;;;;;;;;;1013531;29;20107;-74
2023/05/31 02:54:37;;;;;;;1.65;1.45;;;;;;;;;;1016038;29;20024;-74
2023/05/31 02:55:10;;;;;;;2.05;1.63;;;;;;;;;;1016445;28;20118;-76
2023/05/31 02:55:41;;;;;;;1.85;1.75;;;;;;;;;;1019306;28;20519;-74
2023/05/31 02:56:11;;;;;;;1.05;0.73;;;;;;;;;;1017292;29;20032;-74
2023/05/31 02:56:42;;;;;;;3.42;2.42;;;;;;;;;;1016434;28;20058;-74
2023/05/31 02:57:12;;;;;;;1.95;1.65;;;;;;;;;;1012161;29;20040;-75
2023/05/31 02:57:43;;;;;;;1.05;1.02;;;;;;;;;;1013065;29;20049;-74
2023/05/31 02:58:15;;;;;;;2.05;1.45;;;;;;;;;;1011830;29;20119;-74
2023/05/31 02:58:46;;;;;;;5.88;2.78;;;;;;;;;;995363;29;20031;-74
2023/05/31 02:59:16;;;;;;;8.90;2.00;;;;;;;;;;1008714;29;20369;-74
2023/05/31 02:59:49;;;;;;;4.53;2.80;;;;;;;;;;1011916;29;20605;-74
2023/05/31 03:00:20;;;;;;;3.20;2.45;;;;;;;;;;1017568;28;20042;-75
2023/05/31 03:00:50;;;;;;;2.63;2.10;;;;;;;;;;1017667;29;20066;-74
2023/05/31 03:01:21;;;;;;;0.95;0.90;;;;;;;;;;1017838;29;20037;-74
2023/05/31 03:01:52;;;;;;;1.73;1.63;;;;;;;;;;1016094;29;20517;-74
2023/05/31 03:02:22;;;;;;;1.88;1.77;;;;;;;;;;1018173;29;20174;-73
2023/05/31 03:02:53;;;;;;;1.45;1.30;;;;;;;;;;1013330;29;20040;-74
2023/05/31 03:03:23;;;;;;;5.18;1.65;;;;;;;;;;1010048;29;20123;-74
2023/05/31 03:03:54;;;;;;;1.38;1.25;;;;;;;;;;1010976;29;20031;-74
2023/05/31 03:04:25;;;;;;;4.97;3.33;;;;;;;;;;1015072;29;20038;-74
2023/05/31 03:04:55;;;;;;;4.55;3.40;;;;;;;;;;1016917;29;20055;-75
2023/05/31 03:05:28;;;;;;;4.43;2.45;;;;;;;;;;1017122;29;20031;-75
2023/05/31 03:05:59;;;;;;;0.93;0.75;;;;;;;;;;1016599;29;20130;-75
2023/05/31 03:06:30;;;;;;;3.72;1.98;;;;;;;;;;1016716;29;20158;-75
2023/05/31 03:07:04;;;;;;;6.85;4.95;;;;;;;;;;1018339;29;20522;-75
2023/05/31 03:07:35;;;;;;;3.63;2.83;;;;;;;;;;1019342;29;20496;-75
2023/05/31 03:08:05;;;;;;;5.10;4.13;;;;;;;;;;1017095;29;20036;-75
2023/05/31 03:08:36;;;;;;;2.38;2.08;;;;;;;;;;1016883;29;20411;-75